Time;durP1;ratioP1;P1;durP2;ratioP2;P2;SDS_P1;SDS_P2;PMS_P1;PMS_P2;Temp;Humidity;BMP_temperature;BMP_pressure;BME280_temperature;BME280_humidity;BME280_pressure;Samples;Min_cycle;Max_cycle;Signal;HPM_P1;HPM_P2
2022/03/31 00:00:40;;;;;;;19.10;7.57;;;;;;;12.62;59.50;99193.94;5111355;27;20026;-28
2022/03/31 00:03:08;;;;;;;20.10;7.43;;;;;;;12.70;58.73;99176.63;5111115;27;20196;-31
2022/03/31 00:05:34;;;;;;;17.75;7.60;;;;;;;12.98;58.34;99196.94;5111093;27;20434;-29
2022/03/31 00:08:03;;;;;;;18.65;7.95;;;;;;;12.90;58.38;99189.38;5110952;27;20183;-29
2022/03/31 00:10:43;;;;;;;15.63;7.82;;;;;;;12.62;59.67;99205.44;5111187;27;20572;-31
2022/03/31 00:13:12;;;;;;;15.30;7.38;;;;;;;12.65;59.58;99188.09;5128202;27;20035;-30
2022/03/31 00:15:38;;;;;;;18.02;7.50;;;;;;;13.00;58.04;99178.75;5129388;27;20406;-31
2022/03/31 00:18:05;;;;;;;22.42;8.55;;;;;;;12.88;58.65;99170.91;5111027;27;20494;-28
2022/03/31 00:20:30;;;;;;;15.30;7.30;;;;;;;12.73;58.74;99149.34;5110730;27;20027;-31
2022/03/31 00:22:56;;;;;;;19.20;8.65;;;;;;;12.93;57.87;99162.88;5110675;27;20493;-29
2022/03/31 00:25:25;;;;;;;18.20;7.55;;;;;;;12.68;58.42;99143.97;5129370;27;20042;-31
2022/03/31 00:27:51;;;;;;;21.20;8.13;;;;;;;12.37;60.54;99171.25;5128893;27;20030;-29
2022/03/31 00:30:17;;;;;;;17.30;7.60;;;;;;;12.44;60.09;99171.88;5110370;27;20027;-30
2022/03/31 00:32:43;;;;;;;18.30;8.07;;;;;;;12.36;60.33;99166.97;5110222;27;20039;-30
2022/03/31 00:35:12;;;;;;;15.77;8.07;;;;;;;12.28;60.53;99154.06;5128782;27;20561;-29
2022/03/31 00:37:42;;;;;;;15.88;8.38;;;;;;;12.30;60.90;99170.66;5110719;27;20122;-28
2022/03/31 00:40:09;;;;;;;21.23;8.32;;;;;;;12.34;60.54;99158.41;5110552;27;20454;-33
2022/03/31 00:42:44;;;;;;;19.10;8.75;;;;;;;12.40;60.73;99170.75;5110520;27;20066;-31
2022/03/31 00:45:18;;;;;;;17.75;7.30;;;;;;;12.35;60.43;99173.38;5110104;27;20027;-31
2022/03/31 00:47:43;;;;;;;23.73;7.93;;;;;;;12.35;60.76;99173.38;5127798;27;20046;-28
2022/03/31 00:50:11;;;;;;;19.77;8.20;;;;;;;12.15;61.59;99151.78;5129321;27;20031;-29
2022/03/31 00:52:38;;;;;;;15.45;8.73;;;;;;;12.33;60.77;99143.41;5128716;27;20058;-29
2022/03/31 00:55:05;;;;;;;18.60;8.75;;;;;;;12.33;61.07;99147.94;5127280;27;20053;-31
2022/03/31 00:57:32;;;;;;;20.48;8.15;;;;;;;12.17;61.75;99139.75;5110061;28;20031;-31
2022/03/31 00:59:58;;;;;;;20.95;9.65;;;;;;;12.34;61.23;99152.22;5110084;27;20054;-30
2022/03/31 01:02:28;;;;;;;18.80;9.02;;;;;;;12.12;61.65;99147.75;5129046;27;20069;-30
2022/03/31 01:04:54;;;;;;;22.02;9.30;;;;;;;11.96;62.84;99170.81;5128671;27;20022;-29
2022/03/31 01:07:20;;;;;;;26.33;9.65;;;;;;;11.94;62.67;99156.91;5110002;27;20112;-28
2022/03/31 01:09:45;;;;;;;18.95;9.30;;;;;;;12.10;62.58;99167.75;5110068;27;20027;-29
2022/03/31 01:12:11;;;;;;;20.75;8.85;;;;;;;12.08;62.35;99164.53;5128277;27;20031;-30
2022/03/31 01:14:36;;;;;;;20.50;9.27;;;;;;;12.05;62.32;99139.09;5128251;27;20491;-30
2022/03/31 01:17:02;;;;;;;20.30;9.38;;;;;;;11.75;63.42;99136.84;5128435;27;20020;-29
2022/03/31 01:19:27;;;;;;;19.05;9.05;;;;;;;11.88;63.18;99157.88;5128321;27;20034;-33
2022/03/31 01:21:53;;;;;;;19.33;8.15;;;;;;;11.42;65.12;99155.44;5128457;27;20023;-29
2022/03/31 01:24:19;;;;;;;19.15;8.43;;;;;;;11.51;64.89;99163.03;5126922;27;20118;-30
2022/03/31 01:26:45;;;;;;;21.23;8.98;;;;;;;11.30;65.54;99140.56;5128425;28;20418;-31
2022/03/31 01:29:11;;;;;;;19.98;8.07;;;;;;;11.62;64.67;99162.09;5127828;28;20031;-28
2022/03/31 01:31:38;;;;;;;19.00;9.55;;;;;;;11.21;65.64;99137.50;5110072;28;20118;-28
2022/03/31 01:34:05;;;;;;;19.67;7.95;;;;;;;11.11;66.69;99158.72;5126677;28;20047;-28
2022/03/31 01:36:31;;;;;;;17.40;9.10;;;;;;;11.16;66.75;99156.94;5109883;28;20079;-32
2022/03/31 01:38:57;;;;;;;17.88;8.90;;;;;;;11.39;65.89;99160.44;5128040;28;20038;-33
2022/03/31 01:41:23;;;;;;;21.17;8.60;;;;;;;11.03;66.40;99136.75;5111948;27;20015;-31
2022/03/31 01:43:49;;;;;;;19.02;8.57;;;;;;;11.12;66.72;99142.47;5113370;27;20031;-32
2022/03/31 01:46:14;;;;;;;17.23;8.38;;;;;;;11.15;66.46;99144.63;5132304;27;20102;-29
2022/03/31 01:48:40;;;;;;;22.70;8.55;;;;;;;11.19;65.78;99129.75;5132466;27;20054;-30
2022/03/31 01:51:05;;;;;;;17.35;8.55;;;;;;;11.44;65.59;99136.47;5113546;27;20019;-28
2022/03/31 01:53:36;;;;;;;22.25;9.50;;;;;;;11.76;64.21;99157.97;5132385;27;20031;-28
2022/03/31 01:56:03;;;;;;;20.60;8.68;;;;;;;11.44;65.11;99153.31;5113517;27;20015;-30
2022/03/31 01:58:29;;;;;;;21.98;10.40;;;;;;;11.51;64.98;99150.47;5131930;27;20043;-30
2022/03/31 02:00:54;;;;;;;20.30;8.75;;;;;;;11.41;64.87;99120.97;5132061;27;20015;-32
2022/03/31 02:03:20;;;;;;;19.23;9.02;;;;;;;11.59;64.93;99144.69;5132097;27;20035;-29
2022/03/31 02:05:46;;;;;;;20.08;8.63;;;;;;;11.23;65.73;99100.72;5132192;27;20027;-28
2022/03/31 02:08:11;;;;;;;17.02;8.15;;;;;;;10.98;66.97;99111.84;5131910;27;20395;-33
2022/03/31 02:10:37;;;;;;;16.10;8.73;;;;;;;10.94;66.74;99094.72;5131907;27;20027;-30
2022/03/31 02:13:03;;;;;;;18.13;7.93;;;;;;;11.06;66.72;99108.75;5112803;27;20042;-31
2022/03/31 02:15:29;;;;;;;22.63;8.27;;;;;;;11.17;66.47;99115.03;5113370;27;20031;-30
2022/03/31 02:17:55;;;;;;;19.77;8.70;;;;;;;11.00;66.87;99115.06;5130265;27;20494;-29
2022/03/31 02:20:27;;;;;;;20.42;8.07;;;;;;;11.02;67.08;99118.31;5113344;27;20062;-29
2022/03/31 02:22:52;;;;;;;17.92;8.25;;;;;;;10.82;67.88;99108.13;5131281;27;20027;-33
2022/03/31 02:25:18;;;;;;;17.23;8.93;;;;;;;10.77;68.32;99098.22;5131595;27;20034;-29
2022/03/31 02:27:43;;;;;;;19.58;8.80;;;;;;;11.02;66.97;99107.63;5131683;27;20027;-29
2022/03/31 02:30:10;;;;;;;24.38;9.15;;;;;;;11.28;65.74;99103.47;5131528;27;20023;-29
2022/03/31 02:32:37;;;;;;;16.95;7.90;;;;;;;11.30;66.20;99124.53;5112867;27;20404;-29
2022/03/31 02:35:04;;;;;;;17.88;8.65;;;;;;;11.10;66.32;99109.88;5128602;28;20035;-30
2022/03/31 02:37:30;;;;;;;17.40;8.00;;;;;;;11.17;65.89;99121.19;5111552;28;20039;-31
2022/03/31 02:39:55;;;;;;;22.48;8.95;;;;;;;11.27;65.61;99117.84;5129945;28;20079;-29
2022/03/31 02:42:20;;;;;;;21.42;9.07;;;;;;;11.13;66.21;99130.72;5130292;28;20035;-29
2022/03/31 02:44:46;;;;;;;19.50;8.85;;;;;;;11.07;66.25;99121.03;5111469;28;20023;-33
2022/03/31 02:47:11;;;;;;;22.65;8.00;;;;;;;11.11;65.83;99100.81;5129960;28;20027;-28
2022/03/31 02:49:37;;;;;;;24.52;9.35;;;;;;;11.38;65.44;99124.94;5130018;28;20078;-29
2022/03/31 02:52:03;;;;;;;17.67;8.52;;;;;;;11.42;64.56;99102.03;5129336;27;20027;-29
2022/03/31 02:57:13;;;;;;;21.55;9.05;;;;;;;11.39;64.85;99091.03;5129924;28;20030;-29
2022/03/31 02:59:38;;;;;;;22.75;8.63;;;;;;;11.54;64.79;99098.44;5129786;28;20031;-30
2022/03/31 03:02:05;;;;;;;15.68;8.15;;;;;;;10.96;65.81;99087.28;5129768;28;20035;-31
2022/03/31 03:04:30;;;;;;;23.17;7.90;;;;;;;10.90;66.59;99098.91;5111261;28;20035;-32
2022/03/31 03:06:56;;;;;;;19.05;7.75;;;;;;;11.01;66.27;99127.34;5129383;28;20080;-30
2022/03/31 03:09:22;;;;;;;22.13;7.90;;;;;;;11.18;65.34;99116.66;5129506;28;20027;-29
2022/03/31 03:11:48;;;;;;;21.02;8.13;;;;;;;11.45;64.31;99100.72;5111168;28;20034;-30
2022/03/31 03:14:14;;;;;;;20.95;8.48;;;;;;;11.54;64.77;99114.44;5129496;28;20083;-32
2022/03/31 03:16:40;;;;;;;25.67;8.00;;;;;;;11.42;65.27;99128.75;5129679;28;20035;-28
2022/03/31 03:19:07;;;;;;;21.17;8.95;;;;;;;11.34;65.12;99115.00;5110587;28;20023;-28
2022/03/31 03:21:34;;;;;;;21.48;9.82;;;;;;;11.29;65.51;99097.06;5110591;28;20026;-28
2022/03/31 03:24:03;;;;;;;19.63;8.48;;;;;;;11.30;66.09;99114.69;5110756;28;20027;-30
2022/03/31 03:26:29;;;;;;;26.73;10.30;;;;;;;11.21;65.95;99111.63;5110791;28;20586;-33
2022/03/31 03:28:55;;;;;;;18.73;10.27;;;;;;;11.42;65.74;99094.03;5110433;28;20023;-29
2022/03/31 03:31:20;;;;;;;23.20;11.13;;;;;;;11.71;64.52;99087.66;5110819;28;20031;-32
2022/03/31 03:33:47;;;;;;;23.30;10.20;;;;;;;10.85;67.76;99065.78;5082178;27;1336510;-28
2022/03/31 03:36:19;;;;;;;25.70;10.80;;;;;;;10.89;67.58;99057.28;5111005;27;20491;-29
2022/03/31 03:38:44;;;;;;;29.83;14.18;;;;;;;11.19;66.90;99081.72;5111716;27;20115;-30
2022/03/31 03:41:12;;;;;;;32.05;26.50;;;;;;;11.36;66.08;99086.19;5129813;27;20035;-32
2022/03/31 03:43:42;;;;;;;40.17;24.55;;;;;;;11.43;65.42;99084.16;5111349;27;20023;-34
2022/03/31 03:46:08;;;;;;;32.40;15.93;;;;;;;11.37;66.10;99104.63;5130135;27;20027;-28
2022/03/31 03:48:34;;;;;;;24.73;10.05;;;;;;;10.95;67.81;99113.16;5128479;27;20044;-29
2022/03/31 03:51:00;;;;;;;27.30;11.77;;;;;;;11.01;67.93;99095.34;5129358;27;20460;-29
2022/03/31 03:53:26;;;;;;;36.97;20.27;;;;;;;10.97;67.97;99105.72;5130300;27;20053;-28
2022/03/31 03:55:51;;;;;;;27.92;12.43;;;;;;;10.87;68.52;99100.22;5129749;27;20031;-29
2022/03/31 03:58:17;;;;;;;35.97;20.23;;;;;;;10.95;68.71;99090.97;5129892;27;20035;-28
2022/03/31 04:00:43;;;;;;;81.68;45.90;;;;;;;10.67;69.56;99065.25;5129867;27;20035;-31
2022/03/31 04:03:09;;;;;;;35.05;16.10;;;;;;;10.58;70.60;99076.31;5110011;27;20023;-28
2022/03/31 04:05:34;;;;;;;24.90;11.45;;;;;;;10.94;69.04;99089.38;5129495;27;20118;-30
2022/03/31 04:08:00;;;;;;;24.00;10.38;;;;;;;11.04;69.18;99084.19;5129626;27;20026;-30
2022/03/31 04:10:25;;;;;;;21.45;9.93;;;;;;;11.09;69.23;99086.09;5129704;27;20122;-28
2022/03/31 04:12:51;;;;;;;27.05;10.10;;;;;;;10.78;70.39;99080.34;5129106;27;20027;-28
2022/03/31 04:15:17;;;;;;;21.85;11.30;;;;;;;11.10;69.03;99069.06;5129583;27;20023;-28
2022/03/31 04:17:43;;;;;;;24.95;11.98;;;;;;;11.24;68.73;99078.31;5110657;27;20027;-36
2022/03/31 04:20:11;;;;;;;22.95;10.18;;;;;;;11.21;69.14;99074.25;5129215;27;20489;-28
2022/03/31 04:22:37;;;;;;;22.33;10.27;;;;;;;11.42;68.21;99078.00;5110863;27;20080;-33
2022/03/31 04:25:05;;;;;;;24.70;13.25;;;;;;;11.40;68.48;99093.47;5110525;27;20126;-31
2022/03/31 04:27:30;;;;;;;27.77;11.68;;;;;;;11.48;68.36;99083.41;5129219;27;20042;-31
2022/03/31 04:29:56;;;;;;;35.25;15.98;;;;;;;11.62;68.10;99098.78;5129245;27;20023;-29
2022/03/31 04:32:21;;;;;;;39.90;16.98;;;;;;;11.58;68.60;99089.66;5129222;27;20107;-28
2022/03/31 04:34:47;;;;;;;31.77;12.85;;;;;;;11.54;68.77;99083.19;5129028;27;20801;-36
2022/03/31 04:37:12;;;;;;;36.60;15.02;;;;;;;11.63;68.78;99073.72;5129505;27;20035;-32
2022/03/31 04:39:38;;;;;;;31.00;12.93;;;;;;;11.66;68.98;99091.91;5128971;27;20030;-29
2022/03/31 04:42:05;;;;;;;55.05;23.95;;;;;;;11.71;69.21;99079.66;5129039;27;20027;-29
2022/03/31 04:44:30;;;;;;;44.90;19.50;;;;;;;11.88;68.38;99083.06;5110318;27;20066;-29
2022/03/31 04:46:55;;;;;;;33.70;13.98;;;;;;;11.90;68.55;99097.00;5128664;27;20059;-32
2022/03/31 04:49:21;;;;;;;29.42;13.60;;;;;;;11.90;69.13;99090.84;5128500;27;20053;-29
2022/03/31 04:51:46;;;;;;;33.70;14.35;;;;;;;12.11;68.00;99065.13;5128951;27;20023;-31
2022/03/31 04:54:12;;;;;;;32.72;16.20;;;;;;;12.17;68.31;99082.84;5128647;27;20509;-28
2022/03/31 04:56:39;;;;;;;30.20;13.48;;;;;;;12.18;68.62;99071.09;5110216;27;20023;-28
2022/03/31 04:59:05;;;;;;;29.38;11.82;;;;;;;11.88;69.39;99069.69;5109878;27;20042;-29
2022/03/31 05:01:30;;;;;;;37.28;18.73;;;;;;;12.15;68.99;99092.97;5128424;27;20027;-28
2022/03/31 05:03:56;;;;;;;38.85;19.77;;;;;;;12.21;68.91;99105.31;5128620;27;20038;-31
2022/03/31 05:06:21;;;;;;;39.80;18.75;;;;;;;12.27;69.22;99107.00;5128404;27;20072;-29
2022/03/31 05:08:47;;;;;;;32.95;15.23;;;;;;;12.01;69.72;99098.75;5109892;27;20133;-37
2022/03/31 05:11:13;;;;;;;100.45;44.97;;;;;;;12.19;69.09;99104.78;5128864;27;20100;-28
2022/03/31 05:13:38;;;;;;;69.28;34.15;;;;;;;12.18;69.21;99105.84;5128640;27;20414;-31
2022/03/31 05:16:05;;;;;;;72.57;34.55;;;;;;;12.37;68.68;99130.34;5110042;27;20027;-32
2022/03/31 05:18:31;;;;;;;41.97;22.50;;;;;;;12.22;69.31;99120.31;5128139;27;20023;-29
2022/03/31 05:20:56;;;;;;;51.88;26.45;;;;;;;12.35;68.32;99117.22;5127819;27;20031;-37
2022/03/31 05:23:22;;;;;;;46.33;23.63;;;;;;;12.45;68.26;99125.34;5128205;27;20461;-33
2022/03/31 05:25:48;;;;;;;42.17;21.98;;;;;;;12.83;67.34;99126.19;5128335;27;20061;-33
2022/03/31 05:28:15;;;;;;;29.02;11.60;;;;;;;12.60;66.43;99078.38;5128101;28;20561;-29
2022/03/31 05:30:42;;;;;;;32.70;13.77;;;;;;;12.68;67.63;99123.38;5128228;28;20452;-29
2022/03/31 05:33:08;;;;;;;25.02;11.65;;;;;;;12.67;67.44;99113.75;5120946;28;20047;-31
2022/03/31 05:35:33;;;;;;;29.90;10.77;;;;;;;12.64;67.80;99133.78;5096722;28;20034;-29
2022/03/31 05:37:59;;;;;;;25.40;12.32;;;;;;;12.82;66.85;99119.19;5107733;28;20028;-31
2022/03/31 05:40:25;;;;;;;23.65;12.05;;;;;;;12.78;67.69;99126.13;5107395;28;20392;-30
2022/03/31 05:42:50;;;;;;;25.88;11.77;;;;;;;12.53;69.12;99100.00;5107255;28;20019;-32
2022/03/31 05:45:16;;;;;;;22.63;11.43;;;;;;;12.89;67.40;99078.03;5107216;28;20099;-31
2022/03/31 05:47:43;;;;;;;36.72;14.85;;;;;;;13.16;66.27;99092.13;5113106;28;20534;-34
2022/03/31 05:50:11;;;;;;;31.50;15.57;;;;;;;13.31;65.80;99104.00;5103234;28;20483;-30
2022/03/31 05:52:40;;;;;;;25.13;12.80;;;;;;;13.25;66.38;99106.63;5088931;28;20030;-29
2022/03/31 05:55:08;;;;;;;64.75;19.35;;;;;;;13.31;66.75;99122.75;5088869;28;20080;-30
2022/03/31 05:57:37;;;;;;;34.30;10.93;;;;;;;13.46;65.79;99110.25;5089223;28;20051;-28
2022/03/31 06:00:04;;;;;;;31.00;11.93;;;;;;;13.66;65.50;99106.81;5088747;28;20274;-30
2022/03/31 06:02:30;;;;;;;26.05;11.18;;;;;;;13.55;65.48;99118.59;5107779;28;20067;-30
2022/03/31 06:04:55;;;;;;;28.05;12.18;;;;;;;13.52;65.51;99121.78;5107092;28;20510;-30
2022/03/31 06:07:21;;;;;;;27.40;12.52;;;;;;;13.58;65.45;99138.69;5107188;28;20027;-29
2022/03/31 06:09:46;;;;;;;31.35;12.75;;;;;;;13.60;65.36;99134.66;5107513;28;20069;-29
2022/03/31 06:12:11;;;;;;;30.67;13.05;;;;;;;13.65;65.38;99148.09;5107137;28;20027;-29
2022/03/31 06:14:37;;;;;;;26.73;13.63;;;;;;;13.70;65.10;99133.13;5107111;28;20031;-30
2022/03/31 06:17:03;;;;;;;29.00;14.85;;;;;;;13.58;66.72;99146.72;5107015;28;20027;-29
2022/03/31 06:19:28;;;;;;;38.08;18.85;;;;;;;13.63;65.79;99139.53;5088952;28;20028;-33
2022/03/31 06:21:53;;;;;;;38.70;23.27;;;;;;;13.75;65.89;99146.50;5107191;28;20027;-28
2022/03/31 06:24:19;;;;;;;40.88;24.73;;;;;;;13.78;66.09;99152.16;5107289;28;20408;-33
2022/03/31 06:26:46;;;;;;;57.80;43.22;;;;;;;14.10;64.71;99158.41;5108300;28;20036;-29
2022/03/31 06:29:13;;;;;;;48.78;28.75;;;;;;;14.00;65.84;99154.66;5092062;28;20388;-31
2022/03/31 06:31:38;;;;;;;29.88;18.23;;;;;;;13.80;66.13;99141.19;5111021;28;20572;-31
2022/03/31 06:34:04;;;;;;;34.95;18.35;;;;;;;13.74;67.04;99144.91;5110738;28;20075;-31
2022/03/31 06:36:30;;;;;;;35.95;17.65;;;;;;;13.88;66.83;99156.75;5092635;28;20081;-30
2022/03/31 06:38:56;;;;;;;44.58;21.48;;;;;;;14.15;66.40;99166.50;5114564;27;20699;-31
2022/03/31 06:41:22;;;;;;;32.58;15.18;;;;;;;14.15;66.16;99171.84;5110609;28;20027;-29
2022/03/31 06:43:48;;;;;;;23.85;13.90;;;;;;;14.28;66.65;99176.69;5110284;28;20055;-28
2022/03/31 06:46:15;;;;;;;36.95;15.65;;;;;;;14.05;66.94;99186.81;5092391;28;20107;-29
2022/03/31 06:48:42;;;;;;;43.67;18.98;;;;;;;14.14;66.59;99175.59;5109026;28;20027;-30
2022/03/31 06:51:10;;;;;;;132.43;65.60;;;;;;;14.38;66.60;99179.41;5091728;28;20080;-30
2022/03/31 06:53:37;;;;;;;61.22;27.67;;;;;;;14.43;66.04;99141.88;5091916;28;20036;-30
2022/03/31 06:56:04;;;;;;;43.25;21.67;;;;;;;14.43;66.47;99152.59;5108692;28;20407;-32
2022/03/31 06:58:30;;;;;;;56.10;22.75;;;;;;;14.29;67.74;99140.78;5110145;28;20031;-31
2022/03/31 07:00:56;;;;;;;31.75;16.52;;;;;;;14.39;67.61;99121.22;5110355;28;20716;-32
2022/03/31 07:03:22;;;;;;;36.33;19.42;;;;;;;14.42;69.20;99124.16;5110090;28;20086;-30
2022/03/31 07:05:48;;;;;;;33.58;14.57;;;;;;;14.53;68.73;99130.34;5110015;28;20103;-29
2022/03/31 07:08:13;;;;;;;29.95;13.90;;;;;;;14.23;69.20;99115.03;5110060;28;20039;-30
2022/03/31 07:10:38;;;;;;;26.63;14.15;;;;;;;14.30;69.09;99118.25;5110016;28;20028;-31
2022/03/31 07:13:04;;;;;;;31.23;14.48;;;;;;;14.62;68.31;99127.97;5109785;28;20047;-29
2022/03/31 07:15:31;;;;;;;82.57;33.95;;;;;;;14.78;66.89;99131.44;5110387;28;20050;-29
2022/03/31 07:17:56;;;;;;;68.10;31.42;;;;;;;14.24;67.95;99122.81;5091775;28;20063;-32
2022/03/31 07:20:23;;;;;;;37.50;15.75;;;;;;;14.40;67.83;99130.88;5110220;28;20389;-29
2022/03/31 07:22:48;;;;;;;46.67;22.48;;;;;;;14.63;66.33;99118.84;5091155;28;20089;-32
2022/03/31 07:25:16;;;;;;;37.40;19.80;;;;;;;14.59;68.00;99145.41;5108357;28;20023;-30
2022/03/31 07:27:42;;;;;;;27.57;13.27;;;;;;;14.65;66.61;99151.59;5108514;28;20843;-29
2022/03/31 07:30:07;;;;;;;31.88;16.67;;;;;;;14.80;66.30;99143.53;5109714;28;20757;-33
2022/03/31 07:32:33;;;;;;;30.67;19.25;;;;;;;15.08;64.85;99152.09;5090597;28;20036;-30
2022/03/31 07:35:00;;;;;;;23.27;12.95;;;;;;;15.27;64.26;99171.94;5090888;28;20093;-29
2022/03/31 07:37:26;;;;;;;28.75;14.82;;;;;;;15.37;64.90;99176.47;5090780;28;20040;-30
2022/03/31 07:39:52;;;;;;;24.70;13.73;;;;;;;15.53;63.70;99179.94;5090211;28;20087;-31
2022/03/31 07:42:17;;;;;;;26.75;13.70;;;;;;;15.96;61.97;99193.00;5109373;28;20086;-30
2022/03/31 07:44:43;;;;;;;28.85;14.65;;;;;;;15.77;61.85;99179.34;5090762;28;20019;-28
2022/03/31 07:47:09;;;;;;;27.23;14.05;;;;;;;15.51;63.33;99168.66;5109467;28;20109;-29
2022/03/31 07:49:35;;;;;;;36.92;16.75;;;;;;;15.85;60.80;99184.16;5090939;28;20066;-31
2022/03/31 07:52:01;;;;;;;27.52;11.77;;;;;;;16.48;58.80;99203.19;5109487;28;20107;-34
2022/03/31 07:54:27;;;;;;;28.65;11.45;;;;;;;16.34;58.95;99204.09;5090896;28;20051;-30
2022/03/31 07:56:53;;;;;;;23.38;11.80;;;;;;;16.51;58.63;99204.53;5109033;28;20034;-29
2022/03/31 07:59:25;;;;;;;25.30;11.68;;;;;;;16.64;58.13;99173.50;5109391;28;20051;-29
2022/03/31 08:01:52;;;;;;;22.58;10.40;;;;;;;16.73;57.10;99182.56;5109087;28;20055;-29
2022/03/31 08:04:18;;;;;;;32.33;10.90;;;;;;;16.94;57.03;99150.09;5109008;28;20055;-30
2022/03/31 08:06:43;;;;;;;31.15;11.93;;;;;;;17.13;56.32;99140.25;5108881;28;20051;-34
2022/03/31 08:09:12;;;;;;;24.67;9.10;;;;;;;17.75;53.44;99134.94;5108522;28;20089;-29
2022/03/31 08:11:37;;;;;;;34.38;13.43;;;;;;;17.87;53.75;99137.28;5090620;28;20032;-29
2022/03/31 08:14:03;;;;;;;47.20;21.90;;;;;;;17.80;54.22;99131.41;5108937;28;20054;-31
2022/03/31 08:16:28;;;;;;;26.63;9.88;;;;;;;18.12;53.84;99122.63;5108676;28;20757;-33
2022/03/31 08:18:54;;;;;;;27.35;10.95;;;;;;;18.20;53.15;99123.88;5108702;28;20023;-29
2022/03/31 08:21:20;;;;;;;29.58;11.18;;;;;;;18.16;52.31;99122.84;5108744;28;20031;-32
2022/03/31 08:23:45;;;;;;;26.48;11.90;;;;;;;18.09;52.71;99117.03;5108548;28;20027;-29
2022/03/31 08:26:11;;;;;;;26.65;11.57;;;;;;;18.23;51.87;99107.91;5108682;28;20036;-29
2022/03/31 08:28:36;;;;;;;26.75;8.27;;;;;;;18.68;51.80;99102.88;5108487;28;20042;-32
2022/03/31 08:31:02;;;;;;;25.88;8.45;;;;;;;18.59;51.01;99120.03;5089980;28;20023;-29
2022/03/31 08:33:27;;;;;;;25.85;9.70;;;;;;;19.17;50.02;99116.91;5108445;28;20060;-33
2022/03/31 08:35:53;;;;;;;34.00;11.50;;;;;;;18.93;49.40;99121.66;5108557;28;20058;-29
2022/03/31 08:38:18;;;;;;;31.35;9.57;;;;;;;19.44;48.22;99126.13;5089816;28;20469;-29
2022/03/31 08:40:44;;;;;;;25.35;8.50;;;;;;;19.15;48.21;99121.00;5108581;28;20081;-31
2022/03/31 08:43:10;;;;;;;34.83;11.65;;;;;;;19.43;48.07;99117.22;5108181;28;20028;-29
2022/03/31 08:45:36;;;;;;;22.23;9.23;;;;;;;19.80;46.78;99128.16;5108340;28;20031;-30
2022/03/31 08:48:03;;;;;;;29.27;9.82;;;;;;;19.81;46.61;99122.41;5108313;28;20123;-29
2022/03/31 08:50:32;;;;;;;24.52;8.00;;;;;;;19.92;46.14;99112.19;5089367;28;20100;-31
2022/03/31 08:52:58;;;;;;;35.60;12.07;;;;;;;20.18;45.20;99098.06;5107853;28;20112;-28
2022/03/31 08:55:23;;;;;;;30.88;10.18;;;;;;;20.84;44.02;99104.63;5107783;28;20457;-30
2022/03/31 08:57:54;;;;;;;28.20;10.68;;;;;;;20.98;45.25;99095.59;5108232;28;20027;-30
2022/03/31 09:00:21;;;;;;;28.73;12.90;;;;;;;21.01;44.56;99109.31;5089586;28;20035;-30
2022/03/31 09:03:09;;;;;;;27.48;9.73;;;;;;;20.90;45.54;99107.19;5089350;28;20118;-31
2022/03/31 09:05:49;;;;;;;24.85;9.57;;;;;;;20.74;43.44;99094.03;5089096;28;20748;-29
2022/03/31 09:08:16;;;;;;;29.42;8.32;;;;;;;20.81;44.82;99066.50;5107882;28;20416;-34
2022/03/31 09:10:48;;;;;;;22.42;7.82;;;;;;;21.11;44.84;99048.63;5089491;28;20016;-29
2022/03/31 09:13:23;;;;;;;20.27;8.32;;;;;;;21.37;42.71;99045.16;5089611;28;20118;-30
2022/03/31 09:15:56;;;;;;;35.78;8.70;;;;;;;21.21;43.43;99044.81;5089093;28;20423;-30
2022/03/31 09:18:23;;;;;;;25.13;8.10;;;;;;;21.38;42.90;99046.78;5107779;28;20628;-32
2022/03/31 09:20:52;;;;;;;30.50;12.35;;;;;;;21.38;42.31;99052.19;5089217;28;20027;-34
2022/03/31 09:23:22;;;;;;;28.95;9.07;;;;;;;21.63;42.76;99062.31;5089290;28;20095;-30
2022/03/31 09:25:51;;;;;;;31.40;10.32;;;;;;;21.56;43.02;99067.44;5089185;28;20509;-29
2022/03/31 09:28:18;;;;;;;23.60;6.72;;;;;;;21.37;42.20;99056.00;5105866;28;20039;-35
2022/03/31 09:30:50;;;;;;;26.17;7.43;;;;;;;21.66;41.21;99047.34;5088922;28;20150;-32
2022/03/31 09:33:30;;;;;;;22.80;7.82;;;;;;;21.42;43.06;99058.59;5088962;28;20134;-29
2022/03/31 09:35:57;;;;;;;25.42;6.93;;;;;;;21.81;40.22;99054.22;5089220;28;20027;-30
2022/03/31 09:38:23;;;;;;;25.73;7.07;;;;;;;21.70;41.26;99074.63;5089186;28;20032;-32
2022/03/31 09:40:48;;;;;;;22.98;6.90;;;;;;;21.74;40.82;99067.44;5107121;28;20038;-36
2022/03/31 09:43:14;;;;;;;24.48;8.18;;;;;;;21.76;39.98;99065.22;5107508;28;20027;-30
2022/03/31 09:45:40;;;;;;;36.95;8.85;;;;;;;21.84;41.95;99059.00;5107489;28;20099;-32
2022/03/31 09:48:20;;;;;;;25.40;7.78;;;;;;;21.98;40.59;99061.56;5089306;28;20035;-29
2022/03/31 09:50:46;;;;;;;33.40;7.53;;;;;;;21.96;39.49;99045.59;5089093;28;20039;-34
2022/03/31 09:53:12;;;;;;;19.08;6.50;;;;;;;22.16;40.22;99051.50;5088943;28;20027;-29
2022/03/31 09:55:38;;;;;;;27.08;7.18;;;;;;;22.23;38.80;99044.50;5088878;28;20035;-31
2022/03/31 09:58:07;;;;;;;23.83;7.45;;;;;;;22.45;39.12;99046.22;5089125;28;20027;-31
2022/03/31 10:00:33;;;;;;;31.23;8.40;;;;;;;22.39;39.43;99031.22;5107375;28;20042;-29
2022/03/31 10:02:59;;;;;;;31.30;9.68;;;;;;;22.69;39.14;99017.69;5110506;28;20032;-30
2022/03/31 10:05:27;;;;;;;28.70;8.05;;;;;;;22.51;40.69;99027.03;5092780;28;20032;-30
2022/03/31 10:07:52;;;;;;;32.85;9.82;;;;;;;23.03;38.68;99014.06;5092505;28;20131;-35
2022/03/31 10:10:18;;;;;;;28.95;9.38;;;;;;;23.20;38.96;99020.56;5111569;28;20102;-31
2022/03/31 10:13:02;;;;;;;34.25;10.88;;;;;;;23.54;36.46;99035.88;5111226;28;20027;-33
2022/03/31 10:15:34;;;;;;;24.35;8.07;;;;;;;23.53;36.68;99039.69;5092823;28;20023;-29
2022/03/31 10:17:59;;;;;;;31.35;8.50;;;;;;;23.85;36.93;99021.88;5092659;28;20096;-31
2022/03/31 10:20:25;;;;;;;29.48;8.10;;;;;;;23.35;37.78;98990.03;5110926;28;20770;-29
2022/03/31 10:25:47;;;;;;;31.20;8.05;;;;;;;23.23;38.87;99003.56;5111220;28;20042;-33
2022/03/31 10:28:16;;;;;;;30.25;11.27;;;;;;;22.99;39.12;99009.59;5092388;28;20093;-30
2022/03/31 10:31:01;;;;;;;31.80;8.10;;;;;;;23.47;39.08;99016.53;5092240;28;20057;-34
2022/03/31 10:33:31;;;;;;;25.10;7.30;;;;;;;23.59;36.43;99013.88;5092261;28;20052;-35
2022/03/31 10:36:12;;;;;;;24.15;7.68;;;;;;;23.50;38.32;98996.84;5110524;28;20035;-33
2022/03/31 10:38:54;;;;;;;30.13;8.88;;;;;;;23.43;37.60;98991.91;5110721;28;20114;-29
2022/03/31 10:41:35;;;;;;;21.63;7.57;;;;;;;23.35;39.76;98978.38;5110579;28;20163;-35
2022/03/31 10:44:12;;;;;;;26.02;7.53;;;;;;;23.46;37.11;99009.50;5110850;28;20027;-33
2022/03/31 10:46:38;;;;;;;;;;;;;;;23.29;38.26;99012.34;5111064;28;20032;-29
2022/03/31 10:49:10;;;;;;;28.75;8.43;;;;;;;23.46;38.41;99018.47;5091781;28;19961;-29
2022/03/31 10:51:37;;;;;;;30.20;7.72;;;;;;;23.23;37.10;99025.31;5091818;28;20144;-29
2022/03/31 10:54:05;;;;;;;29.17;12.38;;;;;;;23.12;39.05;99011.31;5110418;28;20058;-31
2022/03/31 10:56:32;;;;;;;24.63;7.20;;;;;;;23.04;37.92;99015.66;5091933;28;20035;-30
2022/03/31 10:59:00;;;;;;;27.97;6.97;;;;;;;23.12;37.80;98986.03;5110114;28;20035;-30
2022/03/31 11:01:37;;;;;;;26.27;7.80;;;;;;;23.08;38.28;98996.78;5091709;28;20036;-32
2022/03/31 11:04:07;;;;;;;28.42;6.78;;;;;;;23.11;38.01;99001.56;5110025;28;20024;-32
2022/03/31 11:06:33;;;;;;;23.98;6.32;;;;;;;22.89;38.91;98996.38;5091851;28;20032;-29
2022/03/31 11:08:59;;;;;;;24.23;6.47;;;;;;;22.84;39.38;98984.56;5091670;28;20031;-29
2022/03/31 11:11:29;;;;;;;25.95;6.30;;;;;;;22.65;39.49;98990.38;5110009;28;20523;-31
2022/03/31 11:13:57;;;;;;;22.70;6.88;;;;;;;22.79;38.29;98984.72;5091591;28;20074;-29
2022/03/31 11:16:34;;;;;;;22.45;6.05;;;;;;;22.75;39.46;98970.19;5091549;28;20069;-34
2022/03/31 11:19:04;;;;;;;23.70;6.90;;;;;;;22.62;39.91;98982.88;5109930;28;20036;-30
2022/03/31 11:21:34;;;;;;;30.40;6.43;;;;;;;22.64;40.27;98960.81;5110138;28;20028;-42
2022/03/31 11:24:00;;;;;;;21.00;6.47;;;;;;;22.77;38.08;98972.59;5091504;28;20020;-30
2022/03/31 11:26:27;;;;;;;24.45;7.13;;;;;;;22.73;38.48;98980.59;5109106;28;20114;-31